sensor_id;sensor_type;location;lat;lon;timestamp;pressure;altitude;pressure_sealevel;temperature;humidity
58975;BME280;44751;52.236;5.178;2023-02-16T09:27:54;102122.81;;;6.36;100.00
58975;BME280;44751;52.236;5.178;2023-02-16T09:30:33;102128.56;;;6.42;100.00
58975;BME280;44751;52.236;5.178;2023-02-16T09:33:10;102119.94;;;6.50;100.00
58975;BME280;44751;52.236;5.178;2023-02-16T09:35:38;102119.53;;;6.55;100.00
58975;BME280;44751;52.236;5.178;2023-02-16T09:38:10;102121.50;;;6.41;100.00
58975;BME280;44751;52.236;5.178;2023-02-16T09:40:43;102123.81;;;6.46;100.00
58975;BME280;44751;52.236;5.178;2023-02-16T09:43:44;102129.56;;;6.53;100.00
58975;BME280;44751;52.236;5.178;2023-02-16T09:46:26;102118.44;;;6.57;100.00
58975;BME280;44751;52.236;5.178;2023-02-16T09:49:02;102124.09;;;6.66;100.00
58975;BME280;44751;52.236;5.178;2023-02-16T09:51:38;102133.47;;;6.60;100.00
58975;BME280;44751;52.236;5.178;2023-02-16T09:54:49;102127.34;;;6.58;100.00
58975;BME280;44751;52.236;5.178;2023-02-16T10:00:46;102138.22;;;6.79;100.00
58975;BME280;44751;52.236;5.178;2023-02-16T10:09:27;102148.94;;;7.02;100.00
58975;BME280;44751;52.236;5.178;2023-02-16T10:12:22;102141.34;;;7.19;100.00
58975;BME280;44751;52.236;5.178;2023-02-16T10:15:01;102146.72;;;7.19;100.00
58975;BME280;44751;52.236;5.178;2023-02-16T10:17:59;102145.72;;;7.20;100.00
58975;BME280;44751;52.236;5.178;2023-02-16T10:20:55;102137.53;;;7.33;100.00
58975;BME280;44751;52.236;5.178;2023-02-16T10:23:50;102135.63;;;7.56;100.00
58975;BME280;44751;52.236;5.178;2023-02-16T10:26:44;102129.44;;;7.44;100.00
58975;BME280;44751;52.236;5.178;2023-02-16T10:29:29;102131.72;;;7.60;100.00
58975;BME280;44751;52.236;5.178;2023-02-16T10:32:31;102129.06;;;7.49;100.00
58975;BME280;44751;52.236;5.178;2023-02-16T10:35:15;102135.19;;;7.40;100.00
58975;BME280;44751;52.236;5.178;2023-02-16T10:37:55;102137.78;;;7.62;100.00
58975;BME280;44751;52.236;5.178;2023-02-16T10:40:51;102139.28;;;7.67;100.00
58975;BME280;44751;52.236;5.178;2023-02-16T10:46:12;102130.44;;;7.76;100.00
58975;BME280;44751;52.236;5.178;2023-02-16T10:48:43;102124.59;;;7.71;100.00
58975;BME280;44751;52.236;5.178;2023-02-16T10:51:15;102126.44;;;7.70;100.00
58975;BME280;44751;52.236;5.178;2023-02-16T10:53:46;102122.16;;;7.68;100.00
58975;BME280;44751;52.236;5.178;2023-02-16T10:56:23;102111.63;;;7.76;100.00
58975;BME280;44751;52.236;5.178;2023-02-16T10:58:52;102109.66;;;7.78;100.00
58975;BME280;44751;52.236;5.178;2023-02-16T11:01:21;102109.66;;;7.78;100.00
58975;BME280;44751;52.236;5.178;2023-02-16T11:04:05;102117.91;;;8.08;100.00
58975;BME280;44751;52.236;5.178;2023-02-16T11:06:34;102100.53;;;8.12;100.00
58975;BME280;44751;52.236;5.178;2023-02-16T11:09:01;102099.78;;;8.00;100.00
58975;BME280;44751;52.236;5.178;2023-02-16T11:11:36;102101.28;;;8.14;100.00
58975;BME280;44751;52.236;5.178;2023-02-16T11:14:06;102097.47;;;8.17;100.00
58975;BME280;44751;52.236;5.178;2023-02-16T11:16:34;102108.47;;;8.35;100.00
58975;BME280;44751;52.236;5.178;2023-02-16T11:19:19;102103.09;;;8.35;100.00
58975;BME280;44751;52.236;5.178;2023-02-16T11:21:50;102098.16;;;8.61;100.00
58975;BME280;44751;52.236;5.178;2023-02-16T11:29:42;102099.66;;;8.85;100.00
58975;BME280;44751;52.236;5.178;2023-02-16T11:32:10;102091.47;;;8.56;100.00
58975;BME280;44751;52.236;5.178;2023-02-16T11:34:48;102089.00;;;8.52;100.00
58975;BME280;44751;52.236;5.178;2023-02-16T11:37:24;102095.19;;;8.64;100.00
58975;BME280;44751;52.236;5.178;2023-02-16T11:43:01;102103.78;;;8.58;100.00
58975;BME280;44751;52.236;5.178;2023-02-16T11:45:40;102079.06;;;8.64;100.00
58975;BME280;44751;52.236;5.178;2023-02-16T11:48:13;102083.09;;;8.90;100.00
58975;BME280;44751;52.236;5.178;2023-02-16T11:50:57;102090.78;;;9.04;100.00
58975;BME280;44751;52.236;5.178;2023-02-16T11:53:30;102078.59;;;9.10;100.00
58975;BME280;44751;52.236;5.178;2023-02-16T11:56:21;102066.69;;;9.03;100.00
58975;BME280;44751;52.236;5.178;2023-02-16T12:05:01;102067.00;;;9.49;100.00
58975;BME280;44751;52.236;5.178;2023-02-16T12:10:39;102050.28;;;9.65;100.00
58975;BME280;44751;52.236;5.178;2023-02-16T12:13:22;102047.38;;;9.97;100.00
58975;BME280;44751;52.236;5.178;2023-02-16T12:24:26;102020.19;;;10.18;100.00
58975;BME280;44751;52.236;5.178;2023-02-16T12:27:17;102013.19;;;9.87;100.00
58975;BME280;44751;52.236;5.178;2023-02-16T12:30:32;102013.47;;;9.94;100.00
58975;BME280;44751;52.236;5.178;2023-02-16T13:10:21;101968.44;;;10.42;100.00
58975;BME280;44751;52.236;5.178;2023-02-16T13:13:20;101961.63;;;10.38;100.00
58975;BME280;44751;52.236;5.178;2023-02-16T13:16:15;101969.84;;;10.46;100.00
58975;BME280;44751;52.236;5.178;2023-02-16T13:18:49;101960.34;;;10.42;100.00
58975;BME280;44751;52.236;5.178;2023-02-16T13:21:50;101960.16;;;10.54;100.00
58975;BME280;44751;52.236;5.178;2023-02-16T13:24:50;101952.53;;;10.39;100.00
58975;BME280;44751;52.236;5.178;2023-02-16T13:30:01;101944.16;;;10.42;100.00
58975;BME280;44751;52.236;5.178;2023-02-16T13:35:33;101935.81;;;10.64;100.00
58975;BME280;44751;52.236;5.178;2023-02-16T13:44:13;101914.72;;;10.49;100.00
58975;BME280;44751;52.236;5.178;2023-02-16T13:46:50;101894.72;;;10.42;100.00
58975;BME280;44751;52.236;5.178;2023-02-16T13:49:31;101911.19;;;10.49;100.00
58975;BME280;44751;52.236;5.178;2023-02-16T13:52:09;101895.31;;;10.45;100.00
58975;BME280;44751;52.236;5.178;2023-02-16T13:54:43;101893.16;;;10.67;100.00
58975;BME280;44751;52.236;5.178;2023-02-16T14:03:37;101901.56;;;10.64;100.00
58975;BME280;44751;52.236;5.178;2023-02-16T14:19:58;101883.09;;;10.41;100.00
58975;BME280;44751;52.236;5.178;2023-02-16T14:25:34;101880.00;;;10.36;100.00
58975;BME280;44751;52.236;5.178;2023-02-16T14:31:14;101877.53;;;10.43;100.00
58975;BME280;44751;52.236;5.178;2023-02-16T14:33:59;101874.94;;;10.33;100.00
58975;BME280;44751;52.236;5.178;2023-02-16T14:39:42;101867.72;;;10.24;100.00
58975;BME280;44751;52.236;5.178;2023-02-16T14:42:19;101875.22;;;10.30;100.00
58975;BME280;44751;52.236;5.178;2023-02-16T14:48:29;101883.41;;;10.38;100.00
58975;BME280;44751;52.236;5.178;2023-02-16T15:03:01;101888.34;;;9.59;100.00
58975;BME280;44751;52.236;5.178;2023-02-16T15:05:35;101889.63;;;9.54;100.00
58975;BME280;44751;52.236;5.178;2023-02-16T15:08:17;101879.72;;;9.45;100.00
58975;BME280;44751;52.236;5.178;2023-02-16T15:10:47;101886.97;;;9.45;100.00
58975;BME280;44751;52.236;5.178;2023-02-16T15:13:20;101889.25;;;9.29;100.00
58975;BME280;44751;52.236;5.178;2023-02-16T15:15:59;101883.47;;;9.24;100.00
58975;BME280;44751;52.236;5.178;2023-02-16T15:18:29;101889.13;;;9.21;100.00
58975;BME280;44751;52.236;5.178;2023-02-16T15:21:00;101885.88;;;9.17;100.00
58975;BME280;44751;52.236;5.178;2023-02-16T15:23:33;101882.34;;;9.07;100.00
58975;BME280;44751;52.236;5.178;2023-02-16T15:26:03;101891.97;;;9.10;100.00
58975;BME280;44751;52.236;5.178;2023-02-16T15:28:36;101904.47;;;9.01;100.00
58975;BME280;44751;52.236;5.178;2023-02-16T15:31:35;101895.25;;;9.03;100.00
58975;BME280;44751;52.236;5.178;2023-02-16T15:34:10;101892.28;;;8.97;100.00
58975;BME280;44751;52.236;5.178;2023-02-16T15:36:42;101883.94;;;8.90;100.00
58975;BME280;44751;52.236;5.178;2023-02-16T15:39:15;101892.28;;;8.97;100.00
58975;BME280;44751;52.236;5.178;2023-02-16T15:41:50;101875.69;;;8.91;100.00
58975;BME280;44751;52.236;5.178;2023-02-16T15:44:35;101885.91;;;8.98;100.00
58975;BME280;44751;52.236;5.178;2023-02-16T15:49:35;101884.63;;;8.82;100.00
58975;BME280;44751;52.236;5.178;2023-02-16T15:52:16;101884.63;;;8.92;100.00
58975;BME280;44751;52.236;5.178;2023-02-16T15:54:44;101888.47;;;8.89;100.00
58975;BME280;44751;52.236;5.178;2023-02-16T15:57:32;101876.16;;;8.77;100.00
58975;BME280;44751;52.236;5.178;2023-02-16T16:02:39;101861.84;;;8.76;100.00
58975;BME280;44751;52.236;5.178;2023-02-16T16:08:14;101865.09;;;8.70;100.00
58975;BME280;44751;52.236;5.178;2023-02-16T16:10:42;101864.38;;;8.78;100.00
58975;BME280;44751;52.236;5.178;2023-02-16T16:13:33;101868.63;;;8.71;100.00
58975;BME280;44751;52.236;5.178;2023-02-16T16:15:59;101855.91;;;8.73;100.00
58975;BME280;44751;52.236;5.178;2023-02-16T16:18:35;101861.56;;;8.80;100.00
58975;BME280;44751;52.236;5.178;2023-02-16T16:21:18;101858.19;;;8.68;100.00
58975;BME280;44751;52.236;5.178;2023-02-16T16:23:57;101843.88;;;8.67;100.00
58975;BME280;44751;52.236;5.178;2023-02-16T16:26:25;101841.44;;;8.64;100.00
58975;BME280;44751;52.236;5.178;2023-02-16T16:28:52;101855.03;;;8.72;100.00
58975;BME280;44751;52.236;5.178;2023-02-16T16:34:03;101844.56;;;8.69;100.00
58975;BME280;44751;52.236;5.178;2023-02-16T16:44:37;101832.53;;;8.63;100.00
58975;BME280;44751;52.236;5.178;2023-02-16T16:52:44;101824.31;;;8.65;100.00
58975;BME280;44751;52.236;5.178;2023-02-16T16:58:03;101836.66;;;8.68;100.00
58975;BME280;44751;52.236;5.178;2023-02-16T17:00:32;101823.19;;;8.68;100.00
58975;BME280;44751;52.236;5.178;2023-02-16T17:03:02;101812.72;;;8.64;100.00
58975;BME280;44751;52.236;5.178;2023-02-16T17:05:35;101815.41;;;8.64;100.00
58975;BME280;44751;52.236;5.178;2023-02-16T17:08:04;101820.94;;;8.73;100.00
58975;BME280;44751;52.236;5.178;2023-02-16T17:10:30;101825.59;;;8.61;100.00
58975;BME280;44751;52.236;5.178;2023-02-16T17:13:00;101825.16;;;8.65;100.00
58975;BME280;44751;52.236;5.178;2023-02-16T17:18:19;101802.66;;;8.67;100.00
58975;BME280;44751;52.236;5.178;2023-02-16T17:20:49;101802.94;;;8.63;100.00
58975;BME280;44751;52.236;5.178;2023-02-16T17:23:18;101798.41;;;8.74;100.00
58975;BME280;44751;52.236;5.178;2023-02-16T17:25:45;101795.56;;;8.65;100.00
58975;BME280;44751;52.236;5.178;2023-02-16T17:28:13;101808.88;;;8.67;100.00
58975;BME280;44751;52.236;5.178;2023-02-16T17:30:46;101808.03;;;8.67;100.00
58975;BME280;44751;52.236;5.178;2023-02-16T17:33:12;101799.81;;;8.68;100.00
58975;BME280;44751;52.236;5.178;2023-02-16T17:35:41;101810.59;;;8.68;100.00
58975;BME280;44751;52.236;5.178;2023-02-16T17:38:16;101815.41;;;8.64;100.00
58975;BME280;44751;52.236;5.178;2023-02-16T17:40:46;101802.09;;;8.63;100.00
58975;BME280;44751;52.236;5.178;2023-02-16T17:43:13;101815.41;;;8.74;100.00
58975;BME280;44751;52.236;5.178;2023-02-16T17:45:41;101799.69;;;8.70;100.00
58975;BME280;44751;52.236;5.178;2023-02-16T17:48:26;101807.06;;;8.68;100.00
58975;BME280;44751;52.236;5.178;2023-02-16T17:50:57;101796.84;;;8.71;100.00
58975;BME280;44751;52.236;5.178;2023-02-16T17:53:30;101783.66;;;8.78;100.00
58975;BME280;44751;52.236;5.178;2023-02-16T17:56:00;101801.22;;;8.72;100.00
58975;BME280;44751;52.236;5.178;2023-02-16T17:58:27;101790.31;;;8.74;100.00
58975;BME280;44751;52.236;5.178;2023-02-16T18:00:53;101797.28;;;8.67;100.00
58975;BME280;44751;52.236;5.178;2023-02-16T18:03:20;101801.50;;;8.69;100.00
58975;BME280;44751;52.236;5.178;2023-02-16T18:05:49;101807.47;;;8.63;100.00
58975;BME280;44751;52.236;5.178;2023-02-16T18:08:16;101798.69;;;8.71;100.00
58975;BME280;44751;52.236;5.178;2023-02-16T18:10:48;101796.00;;;8.71;100.00
58975;BME280;44751;52.236;5.178;2023-02-16T18:13:32;101790.06;;;8.57;100.00
58975;BME280;44751;52.236;5.178;2023-02-16T18:16:00;101801.25;;;8.62;100.00
58975;BME280;44751;52.236;5.178;2023-02-16T18:18:27;101783.81;;;8.67;100.00
58975;BME280;44751;52.236;5.178;2023-02-16T18:20:54;101779.56;;;8.64;100.00
58975;BME280;44751;52.236;5.178;2023-02-16T18:23:21;101777.28;;;8.69;100.00
58975;BME280;44751;52.236;5.178;2023-02-16T18:25:50;101784.53;;;8.69;100.00
58975;BME280;44751;52.236;5.178;2023-02-16T18:28:19;101785.81;;;8.64;100.00
58975;BME280;44751;52.236;5.178;2023-02-16T18:30:56;101798.00;;;8.69;100.00
58975;BME280;44751;52.236;5.178;2023-02-16T18:33:25;101798.81;;;8.69;100.00
58975;BME280;44751;52.236;5.178;2023-02-16T18:35:59;101813.56;;;8.65;100.00
58975;BME280;44751;52.236;5.178;2023-02-16T18:38:26;101805.06;;;8.70;100.00
58975;BME280;44751;52.236;5.178;2023-02-16T18:41:00;101818.38;;;8.71;100.00
58975;BME280;44751;52.236;5.178;2023-02-16T18:43:32;101806.19;;;8.67;100.00
58975;BME280;44751;52.236;5.178;2023-02-16T18:46:24;101799.00;;;8.68;100.00
58975;BME280;44751;52.236;5.178;2023-02-16T18:48:50;101802.38;;;8.70;100.00
58975;BME280;44751;52.236;5.178;2023-02-16T18:51:32;101808.31;;;8.73;100.00
58975;BME280;44751;52.236;5.178;2023-02-16T18:54:04;101806.47;;;8.64;100.00
58975;BME280;44751;52.236;5.178;2023-02-16T18:56:31;101802.63;;;8.76;100.00
58975;BME280;44751;52.236;5.178;2023-02-16T18:59:01;101802.91;;;8.73;100.00
58975;BME280;44751;52.236;5.178;2023-02-16T19:01:31;101793.75;;;8.76;100.00
58975;BME280;44751;52.236;5.178;2023-02-16T19:04:00;101811.44;;;8.78;100.00
58975;BME280;44751;52.236;5.178;2023-02-16T19:06:27;101794.28;;;8.80;100.00
58975;BME280;44751;52.236;5.178;2023-02-16T19:09:00;101792.59;;;8.78;100.00
58975;BME280;44751;52.236;5.178;2023-02-16T19:11:27;101788.19;;;8.77;100.00
58975;BME280;44751;52.236;5.178;2023-02-16T19:13:56;101787.91;;;8.71;100.00
58975;BME280;44751;52.236;5.178;2023-02-16T19:16:23;101796.97;;;8.80;100.00
58975;BME280;44751;52.236;5.178;2023-02-16T19:19:04;101794.31;;;8.70;100.00
58975;BME280;44751;52.236;5.178;2023-02-16T19:21:33;101791.75;;;8.78;100.00
58975;BME280;44751;52.236;5.178;2023-02-16T19:24:06;101796.44;;;8.76;100.00
58975;BME280;44751;52.236;5.178;2023-02-16T19:26:41;101784.41;;;8.70;100.00
58975;BME280;44751;52.236;5.178;2023-02-16T19:29:22;101783.53;;;8.80;100.00
58975;BME280;44751;52.236;5.178;2023-02-16T19:32:00;101784.53;;;8.78;100.00
58975;BME280;44751;52.236;5.178;2023-02-16T19:34:27;101782.25;;;8.84;100.00
58975;BME280;44751;52.236;5.178;2023-02-16T19:36:59;101780.41;;;8.84;100.00
58975;BME280;44751;52.236;5.178;2023-02-16T19:39:30;101786.22;;;8.70;100.00
58975;BME280;44751;52.236;5.178;2023-02-16T19:42:01;101794.56;;;8.76;100.00
58975;BME280;44751;52.236;5.178;2023-02-16T19:44:27;101779.97;;;8.79;100.00
58975;BME280;44751;52.236;5.178;2023-02-16T19:46:54;101784.19;;;8.91;100.00
58975;BME280;44751;52.236;5.178;2023-02-16T19:49:21;101784.50;;;8.88;100.00
58975;BME280;44751;52.236;5.178;2023-02-16T19:51:51;101781.38;;;8.83;100.00
58975;BME280;44751;52.236;5.178;2023-02-16T19:54:29;101782.25;;;8.84;100.00
58975;BME280;44751;52.236;5.178;2023-02-16T19:57:02;101778.00;;;8.81;100.00
58975;BME280;44751;52.236;5.178;2023-02-16T19:59:35;101769.66;;;8.84;100.00
58975;BME280;44751;52.236;5.178;2023-02-16T20:02:02;101772.88;;;8.88;100.00
58975;BME280;44751;52.236;5.178;2023-02-16T20:04:29;101784.66;;;8.87;100.00
58975;BME280;44751;52.236;5.178;2023-02-16T20:06:55;101776.28;;;8.90;100.00
58975;BME280;44751;52.236;5.178;2023-02-16T20:09:22;101771.59;;;8.92;100.00
58975;BME280;44751;52.236;5.178;2023-02-16T20:11:54;101781.78;;;8.98;100.00
58975;BME280;44751;52.236;5.178;2023-02-16T20:14:21;101776.13;;;8.91;100.00
58975;BME280;44751;52.236;5.178;2023-02-16T20:16:48;101772.03;;;8.87;100.00
58975;BME280;44751;52.236;5.178;2023-02-16T20:19:16;101775.28;;;9.01;100.00
58975;BME280;44751;52.236;5.178;2023-02-16T20:21:45;101788.88;;;8.99;100.00
58975;BME280;44751;52.236;5.178;2023-02-16T20:24:14;101785.91;;;8.93;100.00
58975;BME280;44751;52.236;5.178;2023-02-16T20:26:43;101786.19;;;8.89;100.00
58975;BME280;44751;52.236;5.178;2023-02-16T20:29:12;101782.91;;;8.96;100.00
58975;BME280;44751;52.236;5.178;2023-02-16T20:31:53;101780.69;;;8.91;100.00
58975;BME280;44751;52.236;5.178;2023-02-16T20:34:21;101771.59;;;8.92;100.00
58975;BME280;44751;52.236;5.178;2023-02-16T20:39:38;101771.84;;;8.99;100.00
58975;BME280;44751;52.236;5.178;2023-02-16T20:42:05;101765.78;;;8.97;100.00
58975;BME280;44751;52.236;5.178;2023-02-16T20:44:42;101772.44;;;9.02;100.00
58975;BME280;44751;52.236;5.178;2023-02-16T20:47:09;101770.88;;;9.00;100.00
58975;BME280;44751;52.236;5.178;2023-02-16T20:49:36;101765.22;;;8.93;100.00
58975;BME280;44751;52.236;5.178;2023-02-16T20:52:04;101764.66;;;8.99;100.00
58975;BME280;44751;52.236;5.178;2023-02-16T20:54:35;101769.59;;;9.04;100.00
58975;BME280;44751;52.236;5.178;2023-02-16T20:57:06;101765.03;;;9.04;100.00
58975;BME280;44751;52.236;5.178;2023-02-16T20:59:36;101769.44;;;9.06;100.00
58975;BME280;44751;52.236;5.178;2023-02-16T21:02:03;101763.78;;;8.99;100.00
58975;BME280;44751;52.236;5.178;2023-02-16T21:04:34;101762.97;;;8.98;100.00
58975;BME280;44751;52.236;5.178;2023-02-16T21:07:01;101762.97;;;8.98;100.00
58975;BME280;44751;52.236;5.178;2023-02-16T21:09:30;101763.50;;;9.02;100.00
58975;BME280;44751;52.236;5.178;2023-02-16T21:11:57;101757.69;;;9.07;100.00
58975;BME280;44751;52.236;5.178;2023-02-16T21:14:29;101755.84;;;8.97;100.00
58975;BME280;44751;52.236;5.178;2023-02-16T21:16:57;101764.03;;;9.06;100.00
58975;BME280;44751;52.236;5.178;2023-02-16T21:19:24;101757.38;;;9.10;100.00
58975;BME280;44751;52.236;5.178;2023-02-16T21:21:51;101760.81;;;9.02;100.00
58975;BME280;44751;52.236;5.178;2023-02-16T21:24:20;101755.44;;;9.02;100.00
58975;BME280;44751;52.236;5.178;2023-02-16T21:26:49;101756.28;;;9.02;100.00
58975;BME280;44751;52.236;5.178;2023-02-16T21:29:16;101768.47;;;9.07;100.00
58975;BME280;44751;52.236;5.178;2023-02-16T21:31:43;101754.41;;;9.03;100.00
58975;BME280;44751;52.236;5.178;2023-02-16T21:34:10;101763.06;;;9.07;100.00
58975;BME280;44751;52.236;5.178;2023-02-16T21:36:36;101748.22;;;9.02;100.00
58975;BME280;44751;52.236;5.178;2023-02-16T21:39:05;101753.28;;;9.06;100.00
58975;BME280;44751;52.236;5.178;2023-02-16T21:41:35;101749.16;;;9.11;100.00
58975;BME280;44751;52.236;5.178;2023-02-16T21:44:04;101745.19;;;9.06;100.00
58975;BME280;44751;52.236;5.178;2023-02-16T21:46:37;101753.56;;;9.12;100.00
58975;BME280;44751;52.236;5.178;2023-02-16T21:49:12;101745.06;;;9.07;100.00
58975;BME280;44751;52.236;5.178;2023-02-16T21:51:39;101739.81;;;9.06;100.00
58975;BME280;44751;52.236;5.178;2023-02-16T21:54:12;101736.28;;;9.05;100.00
58975;BME280;44751;52.236;5.178;2023-02-16T21:56:47;101744.91;;;9.09;100.00
58975;BME280;44751;52.236;5.178;2023-02-16T21:59:15;101744.47;;;9.13;100.00
58975;BME280;44751;52.236;5.178;2023-02-16T22:01:47;101738.38;;;9.11;100.00
58975;BME280;44751;52.236;5.178;2023-02-16T22:04:17;101758.38;;;9.09;100.00
58975;BME280;44751;52.236;5.178;2023-02-16T22:06:47;101753.69;;;9.11;100.00
58975;BME280;44751;52.236;5.178;2023-02-16T22:09:20;101751.97;;;9.10;100.00
58975;BME280;44751;52.236;5.178;2023-02-16T22:11:47;101747.84;;;9.15;100.00
58975;BME280;44751;52.236;5.178;2023-02-16T22:14:18;101739.81;;;9.06;100.00
58975;BME280;44751;52.236;5.178;2023-02-16T22:16:46;101740.53;;;9.08;100.00
58975;BME280;44751;52.236;5.178;2023-02-16T22:19:16;101748.19;;;9.12;100.00
58975;BME280;44751;52.236;5.178;2023-02-16T22:21:46;101745.78;;;9.09;100.00
58975;BME280;44751;52.236;5.178;2023-02-16T22:24:18;101738.84;;;9.07;100.00
58975;BME280;44751;52.236;5.178;2023-02-16T22:26:46;101747.31;;;9.12;100.00
58975;BME280;44751;52.236;5.178;2023-02-16T22:29:14;101755.13;;;9.05;100.00
58975;BME280;44751;52.236;5.178;2023-02-16T22:31:48;101745.50;;;9.02;100.00
58975;BME280;44751;52.236;5.178;2023-02-16T22:34:17;101746.03;;;9.16;100.00
58975;BME280;44751;52.236;5.178;2023-02-16T22:36:43;101738.84;;;9.07;100.00
58975;BME280;44751;52.236;5.178;2023-02-16T22:39:12;101749.28;;;9.10;100.00
58975;BME280;44751;52.236;5.178;2023-02-16T22:41:41;101741.53;;;9.07;100.00
58975;BME280;44751;52.236;5.178;2023-02-16T22:44:12;101744.09;;;9.08;100.00
58975;BME280;44751;52.236;5.178;2023-02-16T22:46:40;101743.38;;;9.06;100.00
58975;BME280;44751;52.236;5.178;2023-02-16T22:49:08;101751.97;;;9.10;100.00
58975;BME280;44751;52.236;5.178;2023-02-16T22:51:35;101753.69;;;9.11;100.00
58975;BME280;44751;52.236;5.178;2023-02-16T22:54:03;101751.34;;;8.98;100.00
58975;BME280;44751;52.236;5.178;2023-02-16T22:56:33;101738.88;;;8.97;100.00
58975;BME280;44751;52.236;5.178;2023-02-16T22:59:00;101744.41;;;8.95;100.00
58975;BME280;44751;52.236;5.178;2023-02-16T23:01:28;101739.41;;;9.00;100.00
58975;BME280;44751;52.236;5.178;2023-02-16T23:03:59;101742.81;;;9.02;100.00
58975;BME280;44751;52.236;5.178;2023-02-16T23:06:35;101737.13;;;9.06;100.00
58975;BME280;44751;52.236;5.178;2023-02-16T23:09:07;101747.06;;;9.05;100.00
58975;BME280;44751;52.236;5.178;2023-02-16T23:11:36;101744.38;;;9.05;100.00
58975;BME280;44751;52.236;5.178;2023-02-16T23:14:04;101740.13;;;9.02;100.00
58975;BME280;44751;52.236;5.178;2023-02-16T23:16:31;101743.81;;;9.01;100.00
58975;BME280;44751;52.236;5.178;2023-02-16T23:19:01;101743.97;;;9.00;100.00
58975;BME280;44751;52.236;5.178;2023-02-16T23:21:30;101751.34;;;8.98;100.00
58975;BME280;44751;52.236;5.178;2023-02-16T23:24:00;101750.91;;;9.02;100.00
58975;BME280;44751;52.236;5.178;2023-02-16T23:26:28;101734.28;;;9.07;100.00
58975;BME280;44751;52.236;5.178;2023-02-16T23:28:57;101730.78;;;9.07;100.00
58975;BME280;44751;52.236;5.178;2023-02-16T23:31:24;101732.19;;;9.01;100.00
58975;BME280;44751;52.236;5.178;2023-02-16T23:33:51;101737.00;;;8.97;100.00
58975;BME280;44751;52.236;5.178;2023-02-16T23:36:18;101731.50;;;8.99;100.00
58975;BME280;44751;52.236;5.178;2023-02-16T23:38:45;101732.19;;;9.01;100.00
58975;BME280;44751;52.236;5.178;2023-02-16T23:41:13;101724.81;;;9.03;100.00
58975;BME280;44751;52.236;5.178;2023-02-16T23:43:40;101727.22;;;9.06;100.00
58975;BME280;44751;52.236;5.178;2023-02-16T23:46:07;101740.13;;;9.02;100.00
58975;BME280;44751;52.236;5.178;2023-02-16T23:48:36;101737.16;;;8.96;100.00
58975;BME280;44751;52.236;5.178;2023-02-16T23:51:04;101730.81;;;8.97;100.00
58975;BME280;44751;52.236;5.178;2023-02-16T23:53:30;101732.34;;;8.99;100.00
58975;BME280;44751;52.236;5.178;2023-02-16T23:56:07;101730.50;;;9.00;100.00
58975;BME280;44751;52.236;5.178;2023-02-16T23:58:39;101721.84;;;9.06;100.00
